createdAt,value
2018-10-16T00:01:34.795Z,58.16
2018-10-16T00:04:02.985Z,58.61
2018-10-16T00:06:31.195Z,58.83
2018-10-16T00:08:59.386Z,58.98
2018-10-16T00:11:27.554Z,59.32
2018-10-16T00:13:55.723Z,59.84
2018-10-16T00:16:23.891Z,60.18
2018-10-16T00:18:52.066Z,60.38
2018-10-16T00:21:20.247Z,60.69
2018-10-16T00:23:48.458Z,60.93
2018-10-16T00:26:16.619Z,60.77
2018-10-16T00:28:44.799Z,60.98
2018-10-16T00:31:12.997Z,60.56
2018-10-16T00:33:42.004Z,60.27
2018-10-16T00:36:10.180Z,59.83
2018-10-16T00:38:38.342Z,59.22
2018-10-16T00:41:07.003Z,58.90
2018-10-16T00:43:35.175Z,58.57
2018-10-16T00:46:03.357Z,58.53
2018-10-16T00:48:31.550Z,58.26
2018-10-16T00:50:59.709Z,58.13
2018-10-16T00:53:27.907Z,57.91
2018-10-16T00:55:56.095Z,57.84
2018-10-16T00:58:24.287Z,57.80
2018-10-16T01:00:59.071Z,57.78
2018-10-16T01:03:33.627Z,57.70
2018-10-16T01:06:01.819Z,57.62
2018-10-16T01:08:30.014Z,57.57
2018-10-16T01:10:58.176Z,57.65
2018-10-16T01:13:26.353Z,57.56
2018-10-16T01:15:54.517Z,57.47
2018-10-16T01:18:22.695Z,57.94
2018-10-16T01:20:50.876Z,58.09
2018-10-16T01:23:19.104Z,58.27
2018-10-16T01:25:47.300Z,58.24
2018-10-16T01:28:15.485Z,58.01
2018-10-16T01:30:43.688Z,58.35
2018-10-16T01:33:11.875Z,58.21
2018-10-16T01:35:40.071Z,58.14
2018-10-16T01:38:08.253Z,58.10
2018-10-16T01:40:36.435Z,58.20
2018-10-16T01:43:04.652Z,58.03
2018-10-16T01:45:32.906Z,58.00
2018-10-16T01:48:01.075Z,57.84
2018-10-16T01:50:29.255Z,57.94
2018-10-16T01:52:57.425Z,57.60
2018-10-16T01:55:25.623Z,57.77
2018-10-16T01:57:53.782Z,57.73
2018-10-16T02:00:21.987Z,58.30
2018-10-16T02:02:50.150Z,58.61
2018-10-16T02:05:18.352Z,58.89
2018-10-16T02:07:46.519Z,58.98
2018-10-16T02:10:14.737Z,59.19
2018-10-16T02:12:42.909Z,59.60
2018-10-16T02:15:11.091Z,59.80
2018-10-16T02:17:40.035Z,59.93
2018-10-16T02:20:08.727Z,60.10
2018-10-16T02:22:37.096Z,60.43
2018-10-16T02:25:05.371Z,60.22
2018-10-16T02:27:33.551Z,60.48
2018-10-16T02:30:01.749Z,60.59
2018-10-16T02:32:29.940Z,60.91
2018-10-16T02:34:58.114Z,61.25
2018-10-16T02:37:26.318Z,61.43
2018-10-16T02:39:54.496Z,61.43
2018-10-16T02:42:22.676Z,61.45
2018-10-16T02:44:50.860Z,61.58
2018-10-16T02:47:19.031Z,61.69
2018-10-16T02:49:47.216Z,61.92
2018-10-16T02:52:15.398Z,61.86
2018-10-16T02:54:43.592Z,61.86
2018-10-16T02:57:11.775Z,61.73
2018-10-16T02:59:39.955Z,61.69
2018-10-16T03:02:08.237Z,61.82
2018-10-16T03:04:36.409Z,62.22
2018-10-16T03:07:04.630Z,62.43
2018-10-16T03:09:32.812Z,62.67
2018-10-16T03:12:01.025Z,62.42
2018-10-16T03:14:29.207Z,62.48
2018-10-16T03:16:57.467Z,62.39
2018-10-16T03:19:25.835Z,62.49
2018-10-16T03:21:54.024Z,62.77
2018-10-16T03:24:22.242Z,62.87
2018-10-16T03:26:50.435Z,62.66
2018-10-16T03:29:18.630Z,62.70
2018-10-16T03:31:46.863Z,63.00
2018-10-16T03:34:15.072Z,63.31
2018-10-16T03:36:43.269Z,63.30
2018-10-16T03:39:12.673Z,63.62
2018-10-16T03:41:40.859Z,63.57
2018-10-16T03:44:10.173Z,63.68
2018-10-16T03:46:38.418Z,63.61
2018-10-16T03:49:06.892Z,63.65
2018-10-16T03:51:35.093Z,63.37
2018-10-16T03:54:03.304Z,63.64
2018-10-16T03:56:31.503Z,63.74
2018-10-16T03:58:59.671Z,63.85
2018-10-16T04:01:27.875Z,63.90
2018-10-16T04:03:56.098Z,64.12
2018-10-16T04:06:24.290Z,63.95
2018-10-16T04:08:53.010Z,63.93
2018-10-16T04:11:21.279Z,63.66
2018-10-16T04:13:50.092Z,63.34
2018-10-16T04:16:18.539Z,63.40
2018-10-16T04:18:46.728Z,63.16
2018-10-16T04:21:14.908Z,63.34
2018-10-16T04:23:43.591Z,63.52
2018-10-16T04:26:12.479Z,63.36
2018-10-16T04:28:40.730Z,63.48
2018-10-16T04:31:10.252Z,63.77
2018-10-16T04:33:38.459Z,63.92
2018-10-16T04:36:06.645Z,63.81
2018-10-16T04:38:34.879Z,64.00
2018-10-16T04:41:03.075Z,64.04
2018-10-16T04:43:31.325Z,64.08
2018-10-16T04:45:59.528Z,64.16
2018-10-16T04:48:34.283Z,64.50
2018-10-16T04:51:02.493Z,64.59
2018-10-16T04:53:30.709Z,64.48
2018-10-16T04:55:58.965Z,64.31
2018-10-16T04:58:27.417Z,64.25
2018-10-16T05:00:55.668Z,64.33
2018-10-16T05:03:24.092Z,64.65
2018-10-16T05:05:52.282Z,64.42
2018-10-16T05:08:20.523Z,64.67
2018-10-16T05:10:48.710Z,64.38
2018-10-16T05:13:16.990Z,64.58
2018-10-16T05:15:45.147Z,64.51
2018-10-16T05:18:13.361Z,64.52
2018-10-16T05:20:41.557Z,64.86
2018-10-16T05:23:09.746Z,64.96
2018-10-16T05:25:37.976Z,64.96
2018-10-16T05:28:06.268Z,65.05
2018-10-16T05:30:34.480Z,64.97
2018-10-16T05:33:02.711Z,64.84
2018-10-16T05:35:30.948Z,65.04
2018-10-16T05:37:59.150Z,65.02
2018-10-16T05:40:28.364Z,65.11
2018-10-16T05:42:56.755Z,65.21
2018-10-16T05:45:26.488Z,65.25
2018-10-16T05:47:54.695Z,65.46
2018-10-16T05:50:22.888Z,65.37
2018-10-16T05:52:51.087Z,65.46
2018-10-16T05:55:19.945Z,65.58
2018-10-16T05:57:48.252Z,65.57
2018-10-16T06:00:29.604Z,65.89
2018-10-16T06:02:57.853Z,65.74
2018-10-16T06:05:26.431Z,65.73
2018-10-16T06:07:54.639Z,65.74
2018-10-16T06:10:22.821Z,65.84
2018-10-16T06:12:51.036Z,65.96
2018-10-16T06:15:19.340Z,66.05
2018-10-16T06:17:47.607Z,65.98
2018-10-16T06:20:15.790Z,65.81
2018-10-16T06:22:44.010Z,65.58
2018-10-16T06:25:12.983Z,65.66
2018-10-16T06:27:42.687Z,65.51
2018-10-16T06:30:11.357Z,65.57
2018-10-16T06:32:39.867Z,65.55
2018-10-16T06:35:08.900Z,65.10
2018-10-16T06:37:37.259Z,65.03
2018-10-16T06:40:06.376Z,64.86
2018-10-16T06:42:34.711Z,64.90
2018-10-16T06:45:02.969Z,64.96
2018-10-16T06:47:31.334Z,64.92
2018-10-16T06:49:59.391Z,65.12
2018-10-16T06:52:27.620Z,65.41
2018-10-16T06:54:56.093Z,65.55
2018-10-16T06:57:24.303Z,65.62
2018-10-16T06:59:53.119Z,65.19
2018-10-16T07:02:21.375Z,64.91
2018-10-16T07:04:49.628Z,64.92
2018-10-16T07:07:17.942Z,65.10
2018-10-16T07:09:46.055Z,65.03
2018-10-16T07:12:15.191Z,65.14
2018-10-16T07:14:43.433Z,65.24
2018-10-16T07:17:11.651Z,65.23
2018-10-16T07:19:39.996Z,65.44
2018-10-16T07:22:10.234Z,65.32
2018-10-16T07:24:38.515Z,65.01
2018-10-16T07:27:06.728Z,64.48
2018-10-16T07:29:35.158Z,64.36
2018-10-16T07:32:04.034Z,64.76
2018-10-16T07:34:32.235Z,64.55
2018-10-16T07:37:00.472Z,64.71
2018-10-16T07:39:28.663Z,64.80
2018-10-16T07:41:56.815Z,64.59
2018-10-16T07:44:24.992Z,64.37
2018-10-16T07:46:53.174Z,64.03
2018-10-16T07:49:21.483Z,63.82
2018-10-16T07:51:49.680Z,63.61
2018-10-16T07:54:18.145Z,63.53
2018-10-16T07:56:46.338Z,63.74
2018-10-16T07:59:15.820Z,64.28
2018-10-16T08:01:44.440Z,64.62
2018-10-16T08:04:12.688Z,64.98
2018-10-16T08:06:40.992Z,64.70
2018-10-16T08:09:11.753Z,64.72
2018-10-16T08:11:44.175Z,64.59
2018-10-16T08:14:13.012Z,64.20
2018-10-16T08:16:41.343Z,63.64
2018-10-16T08:19:09.715Z,62.61
2018-10-16T08:21:38.003Z,62.17
2018-10-16T08:24:06.794Z,61.29
2018-10-16T08:26:35.183Z,59.75
2018-10-16T08:29:03.616Z,58.65
2018-10-16T08:31:31.892Z,57.87
2018-10-16T08:34:00.194Z,56.76
2018-10-16T08:36:30.403Z,56.41
2018-10-16T08:39:09.360Z,55.62
2018-10-16T08:41:44.709Z,55.96
2018-10-16T08:44:26.540Z,56.16
2018-10-16T08:47:07.199Z,55.15
2018-10-16T08:49:46.831Z,53.43
2018-10-16T08:52:15.221Z,52.82
2018-10-16T08:54:43.529Z,52.10
2018-10-16T08:57:11.784Z,51.60
2018-10-16T08:59:40.036Z,50.22
2018-10-16T09:02:08.302Z,49.13
2018-10-16T09:04:36.589Z,48.57
2018-10-16T09:07:05.127Z,48.31
2018-10-16T09:09:33.632Z,47.79
2018-10-16T09:12:01.874Z,48.07
2018-10-16T09:14:30.084Z,46.26
2018-10-16T09:16:58.246Z,46.43
2018-10-16T09:19:26.596Z,46.24
2018-10-16T09:21:54.918Z,45.89
2018-10-16T09:24:24.137Z,45.67
2018-10-16T09:26:52.588Z,45.07
2018-10-16T09:29:20.810Z,44.57
2018-10-16T09:31:50.079Z,44.26
2018-10-16T09:34:18.283Z,43.31
2018-10-16T09:36:46.446Z,43.36
2018-10-16T09:39:14.631Z,43.99
2018-10-16T09:41:42.812Z,43.33
2018-10-16T09:44:10.983Z,42.97
2018-10-16T09:46:39.424Z,41.94
2018-10-16T09:49:07.765Z,41.83
2018-10-16T09:51:35.960Z,41.52
2018-10-16T09:54:04.138Z,40.95
2018-10-16T09:56:32.351Z,39.33
2018-10-16T09:59:00.543Z,39.23
2018-10-16T10:01:34.219Z,38.71
2018-10-16T10:04:02.552Z,37.77
2018-10-16T10:06:30.951Z,37.10
2018-10-16T10:08:59.150Z,37.10
2018-10-16T10:11:27.340Z,35.52
2018-10-16T10:13:55.503Z,36.20
2018-10-16T10:16:23.699Z,35.66
2018-10-16T10:18:51.887Z,35.74
2018-10-16T10:21:20.089Z,35.31
2018-10-16T10:23:48.277Z,34.88
2018-10-16T10:26:16.459Z,34.09
2018-10-16T10:28:44.646Z,33.69
2018-10-16T10:31:12.828Z,33.82
2018-10-16T10:33:41.018Z,35.66
2018-10-16T10:36:09.210Z,33.45
2018-10-16T10:38:37.408Z,33.42
2018-10-16T10:41:05.594Z,33.13
2018-10-16T10:43:33.779Z,33.00
2018-10-16T10:46:01.967Z,32.49
2018-10-16T10:48:30.159Z,33.16
2018-10-16T10:50:58.494Z,32.69
2018-10-16T10:53:26.500Z,32.69
2018-10-16T10:55:54.723Z,33.06
2018-10-16T10:58:22.924Z,32.78
2018-10-16T11:00:51.164Z,32.34
2018-10-16T11:03:19.464Z,32.33
2018-10-16T11:05:47.620Z,31.48
2018-10-16T11:08:15.779Z,32.39
2018-10-16T11:10:43.946Z,32.91
2018-10-16T11:13:12.148Z,31.77
2018-10-16T11:15:40.328Z,32.25
2018-10-16T11:18:08.520Z,32.49
2018-10-16T11:20:36.720Z,32.73
2018-10-16T11:23:05.512Z,33.24
2018-10-16T11:25:33.712Z,32.68
2018-10-16T11:28:01.895Z,33.03
2018-10-16T11:30:30.080Z,32.66
2018-10-16T11:32:58.382Z,32.97
2018-10-16T11:35:26.518Z,33.10
2018-10-16T11:37:54.700Z,33.65
2018-10-16T11:40:22.884Z,33.97
2018-10-16T11:42:51.051Z,33.29
2018-10-16T11:45:19.259Z,33.45
2018-10-16T11:47:47.446Z,32.83
2018-10-16T11:50:15.695Z,33.69
2018-10-16T11:52:43.846Z,33.35
2018-10-16T11:55:12.057Z,34.04
2018-10-16T11:57:40.248Z,33.37
2018-10-16T12:00:12.674Z,32.98
2018-10-16T12:02:40.983Z,33.98
2018-10-16T12:05:09.183Z,32.51
2018-10-16T12:07:37.350Z,32.01
2018-10-16T12:10:05.871Z,32.07
2018-10-16T12:12:34.058Z,33.04
2018-10-16T12:15:02.295Z,32.60
2018-10-16T12:17:50.285Z,31.75
2018-10-16T12:20:22.356Z,32.06
2018-10-16T12:22:50.520Z,34.36
2018-10-16T12:25:19.095Z,34.10
2018-10-16T12:27:47.398Z,35.41
2018-10-16T12:30:15.571Z,35.35
2018-10-16T12:32:43.786Z,34.51
2018-10-16T12:35:11.995Z,34.14
2018-10-16T12:37:40.162Z,34.33
2018-10-16T12:40:08.724Z,33.05
2018-10-16T12:42:36.875Z,33.55
2018-10-16T12:45:06.082Z,33.40
2018-10-16T12:47:34.210Z,32.58
2018-10-16T12:50:02.408Z,32.95
2018-10-16T12:52:30.600Z,32.53
2018-10-16T12:54:58.780Z,32.23
2018-10-16T12:57:27.016Z,32.06
2018-10-16T12:59:55.140Z,32.35
2018-10-16T13:02:23.311Z,32.99
2018-10-16T13:04:51.470Z,32.54
2018-10-16T13:07:29.227Z,32.17
2018-10-16T13:09:57.419Z,31.29
2018-10-16T13:12:25.590Z,31.16
2018-10-16T13:14:56.039Z,31.59
2018-10-16T13:17:24.298Z,32.56
2018-10-16T13:19:52.478Z,32.66
2018-10-16T13:22:20.747Z,32.39
2018-10-16T13:24:48.971Z,31.77
2018-10-16T13:27:17.206Z,31.32
2018-10-16T13:29:45.618Z,32.26
2018-10-16T13:32:13.843Z,32.09
2018-10-16T13:34:41.972Z,32.44
2018-10-16T13:37:10.153Z,31.43
2018-10-16T13:39:38.428Z,31.45
2018-10-16T13:42:06.608Z,33.00
2018-10-16T13:44:34.919Z,31.75
2018-10-16T13:47:04.072Z,32.15
2018-10-16T13:49:32.272Z,31.62
2018-10-16T13:52:00.493Z,33.46
2018-10-16T13:54:28.624Z,34.60
2018-10-16T13:56:56.838Z,34.83
2018-10-16T13:59:25.099Z,35.61
2018-10-16T14:01:53.276Z,34.93
2018-10-16T14:04:21.463Z,33.85
2018-10-16T14:06:49.659Z,34.62
2018-10-16T14:09:17.809Z,34.32
2018-10-16T14:11:46.008Z,34.56
2018-10-16T14:14:14.214Z,33.68
2018-10-16T14:16:42.427Z,33.75
2018-10-16T14:19:10.545Z,33.15
2018-10-16T14:21:38.953Z,33.00
2018-10-16T14:24:07.146Z,33.76
2018-10-16T14:26:35.437Z,33.05
2018-10-16T14:29:03.776Z,32.83
2018-10-16T14:31:31.963Z,32.64
2018-10-16T14:34:00.170Z,33.28
2018-10-16T14:36:28.335Z,33.36
2018-10-16T14:38:56.520Z,35.49
2018-10-16T14:41:24.698Z,33.84
2018-10-16T14:43:52.900Z,35.77
2018-10-16T14:46:21.140Z,37.26
2018-10-16T14:48:49.321Z,38.84
2018-10-16T14:51:17.585Z,38.89
2018-10-16T14:53:45.760Z,39.10
2018-10-16T14:56:14.033Z,38.97
2018-10-16T14:58:50.672Z,39.97
2018-10-16T15:01:18.866Z,40.31
2018-10-16T15:03:47.203Z,39.73
2018-10-16T15:06:15.384Z,39.71
2018-10-16T15:08:43.571Z,39.91
2018-10-16T15:11:11.890Z,39.57
2018-10-16T15:13:40.193Z,40.74
2018-10-16T15:16:08.649Z,41.54
2018-10-16T15:18:37.056Z,41.64
2018-10-16T15:21:06.221Z,43.18
2018-10-16T15:23:34.663Z,43.16
2018-10-16T15:26:02.888Z,42.98
2018-10-16T15:28:31.249Z,42.59
2018-10-16T15:30:59.806Z,42.72
2018-10-16T15:33:28.704Z,42.99
2018-10-16T15:35:56.911Z,42.31
2018-10-16T15:38:25.315Z,41.85
2018-10-16T15:40:53.493Z,42.51
2018-10-16T15:43:21.720Z,42.71
2018-10-16T15:45:49.929Z,43.40
2018-10-16T15:48:18.137Z,43.01
2018-10-16T15:50:46.607Z,43.21
2018-10-16T15:53:14.768Z,43.90
2018-10-16T15:55:42.965Z,43.93
2018-10-16T15:58:11.193Z,44.38
2018-10-16T16:00:39.371Z,43.01
2018-10-16T16:03:07.562Z,42.67
2018-10-16T16:05:35.794Z,42.89
2018-10-16T16:08:04.385Z,43.76
2018-10-16T16:10:32.554Z,43.75
2018-10-16T16:13:04.913Z,44.48
2018-10-16T16:15:33.112Z,44.62
2018-10-16T16:18:01.398Z,43.38
2018-10-16T16:20:29.487Z,43.14
2018-10-16T16:22:57.673Z,42.39
2018-10-16T16:25:25.896Z,41.96
2018-10-16T16:27:54.132Z,42.67
2018-10-16T16:30:22.317Z,44.02
2018-10-16T16:32:50.521Z,46.14
2018-10-16T16:35:18.719Z,46.02
2018-10-16T16:37:46.891Z,45.99
2018-10-16T16:40:15.208Z,46.16
2018-10-16T16:42:43.429Z,46.79
2018-10-16T16:45:12.322Z,47.75
2018-10-16T16:47:40.553Z,47.41
2018-10-16T16:50:10.231Z,48.05
2018-10-16T16:52:38.579Z,47.74
2018-10-16T16:55:08.087Z,48.02
2018-10-16T16:57:36.368Z,48.35
2018-10-16T17:00:05.572Z,48.31
2018-10-16T17:02:33.791Z,48.33
2018-10-16T17:05:01.987Z,48.33
2018-10-16T17:07:30.208Z,48.17
2018-10-16T17:09:58.429Z,48.45
2018-10-16T17:12:26.683Z,48.70
2018-10-16T17:14:54.868Z,48.91
2018-10-16T17:17:23.067Z,48.46
2018-10-16T17:19:51.276Z,49.15
2018-10-16T17:22:19.463Z,48.96
2018-10-16T17:24:47.764Z,49.08
2018-10-16T17:27:16.174Z,49.30
2018-10-16T17:29:46.031Z,49.56
2018-10-16T17:32:14.785Z,49.33
2018-10-16T17:34:43.076Z,49.72
2018-10-16T17:37:11.272Z,49.54
2018-10-16T17:39:39.575Z,49.21
2018-10-16T17:42:07.775Z,49.70
2018-10-16T17:44:36.015Z,48.85
2018-10-16T17:47:04.219Z,48.03
2018-10-16T17:49:32.565Z,47.38
2018-10-16T17:52:00.758Z,46.68
2018-10-16T17:54:28.965Z,46.34
2018-10-16T17:56:57.150Z,46.48
2018-10-16T17:59:25.314Z,46.45
2018-10-16T18:01:53.808Z,46.58
2018-10-16T18:04:22.021Z,46.55
2018-10-16T18:06:50.250Z,47.30
2018-10-16T18:09:18.460Z,48.20
2018-10-16T18:11:46.947Z,48.41
2018-10-16T18:14:15.159Z,48.61
2018-10-16T18:16:43.357Z,48.49
2018-10-16T18:19:11.536Z,49.06
2018-10-16T18:21:39.706Z,49.03
2018-10-16T18:24:07.896Z,48.69
2018-10-16T18:26:36.290Z,48.56
2018-10-16T18:29:05.347Z,48.57
2018-10-16T18:31:33.615Z,48.87
2018-10-16T18:34:02.621Z,49.46
2018-10-16T18:36:31.439Z,49.47
2018-10-16T18:38:59.926Z,48.74
2018-10-16T18:41:28.183Z,49.23
2018-10-16T18:43:57.019Z,49.71
2018-10-16T18:46:27.157Z,49.81
2018-10-16T18:48:55.611Z,49.72
2018-10-16T18:51:23.804Z,50.17
2018-10-16T18:53:52.287Z,49.77
2018-10-16T18:56:20.640Z,49.46
2018-10-16T18:58:48.971Z,49.91
2018-10-16T19:01:17.311Z,50.26
2018-10-16T19:03:45.651Z,51.13
2018-10-16T19:06:14.051Z,51.42
2018-10-16T19:08:42.456Z,50.91
2018-10-16T19:11:10.641Z,51.05
2018-10-16T19:13:38.838Z,50.94
2018-10-16T19:16:07.035Z,51.49
2018-10-16T19:18:35.232Z,51.61
2018-10-16T19:21:03.450Z,52.04
2018-10-16T19:23:31.684Z,52.37
2018-10-16T19:25:59.876Z,52.73
2018-10-16T19:28:28.067Z,52.88
2018-10-16T19:30:56.262Z,52.69
2018-10-16T19:33:24.453Z,52.57
2018-10-16T19:35:52.648Z,52.89
2018-10-16T19:38:21.372Z,52.97
2018-10-16T19:40:50.023Z,53.18
2018-10-16T19:43:18.421Z,52.97
2018-10-16T19:45:47.265Z,53.28
2018-10-16T19:48:16.004Z,53.43
2018-10-16T19:50:45.040Z,53.49
2018-10-16T19:53:13.951Z,53.45
2018-10-16T19:55:42.907Z,53.50
2018-10-16T19:58:11.989Z,53.94
2018-10-16T20:00:41.167Z,53.61
2018-10-16T20:03:10.084Z,53.65
2018-10-16T20:05:38.256Z,53.98
2018-10-16T20:08:06.982Z,53.47
2018-10-16T20:10:35.751Z,53.62
2018-10-16T20:13:04.413Z,54.37
2018-10-16T20:15:33.024Z,54.13
2018-10-16T20:18:02.317Z,54.46
2018-10-16T20:20:30.509Z,54.49
2018-10-16T20:22:58.693Z,54.60
2018-10-16T20:25:26.939Z,54.98
2018-10-16T20:27:55.089Z,54.91
2018-10-16T20:30:23.272Z,55.00
2018-10-16T20:32:51.457Z,55.43
2018-10-16T20:35:19.654Z,55.77
2018-10-16T20:37:47.845Z,55.66
2018-10-16T20:40:16.050Z,55.74
2018-10-16T20:42:44.252Z,55.28
2018-10-16T20:45:12.462Z,55.38
2018-10-16T20:47:40.690Z,55.59
2018-10-16T20:50:08.875Z,55.74
2018-10-16T20:52:37.288Z,55.84
2018-10-16T20:55:05.674Z,56.25
2018-10-16T20:57:33.844Z,56.05
2018-10-16T21:00:02.831Z,55.89
2018-10-16T21:02:31.019Z,56.06
2018-10-16T21:04:59.319Z,56.26
2018-10-16T21:07:27.426Z,56.48
2018-10-16T21:09:55.559Z,56.27
2018-10-16T21:12:23.744Z,57.02
2018-10-16T21:14:51.930Z,56.74
2018-10-16T21:17:20.100Z,57.00
2018-10-16T21:19:48.259Z,56.43
2018-10-16T21:22:16.424Z,56.93
2018-10-16T21:24:44.636Z,56.88
2018-10-16T21:27:13.250Z,57.37
2018-10-16T21:29:41.418Z,57.46
2018-10-16T21:32:09.907Z,57.43
2018-10-16T21:34:38.098Z,57.64
2018-10-16T21:37:06.285Z,57.70
2018-10-16T21:39:34.450Z,57.67
2018-10-16T21:42:02.607Z,57.88
2018-10-16T21:44:30.819Z,57.56
2018-10-16T21:46:59.007Z,57.69
2018-10-16T21:49:27.158Z,57.87
2018-10-16T21:51:55.339Z,57.82
2018-10-16T21:54:23.514Z,57.73
2018-10-16T21:56:51.744Z,58.04
2018-10-16T21:59:20.081Z,58.11
2018-10-16T22:01:53.471Z,58.28
2018-10-16T22:04:21.679Z,58.22
2018-10-16T22:06:49.879Z,58.57
2018-10-16T22:09:18.088Z,58.38
2018-10-16T22:11:46.271Z,58.52
2018-10-16T22:14:14.631Z,58.50
2018-10-16T22:16:42.811Z,58.74
2018-10-16T22:19:11.119Z,58.65
2018-10-16T22:21:39.199Z,58.67
2018-10-16T22:24:07.390Z,58.86
2018-10-16T22:26:35.591Z,58.82
2018-10-16T22:29:03.887Z,59.16
2018-10-16T22:31:32.015Z,59.58
2018-10-16T22:34:00.231Z,59.63
2018-10-16T22:36:28.410Z,59.56
2018-10-16T22:38:56.604Z,59.94
2018-10-16T22:41:24.795Z,59.56
2018-10-16T22:43:52.998Z,60.26
2018-10-16T22:46:21.179Z,59.91
2018-10-16T22:48:49.366Z,59.87
2018-10-16T22:51:17.588Z,60.19
2018-10-16T22:53:45.903Z,60.22
2018-10-16T22:56:14.086Z,60.52
2018-10-16T22:58:42.307Z,60.47
2018-10-16T23:01:10.585Z,60.47
2018-10-16T23:03:38.706Z,60.29
2018-10-16T23:06:07.077Z,60.52
2018-10-16T23:08:35.272Z,60.50
2018-10-16T23:11:03.533Z,60.47
2018-10-16T23:13:31.654Z,60.97
2018-10-16T23:15:59.839Z,61.29
2018-10-16T23:18:28.030Z,61.02
2018-10-16T23:20:56.237Z,61.31
2018-10-16T23:23:24.431Z,61.39
2018-10-16T23:25:52.602Z,61.20
2018-10-16T23:28:20.811Z,61.07
2018-10-16T23:30:49.003Z,61.05
2018-10-16T23:33:18.274Z,60.42
2018-10-16T23:35:46.462Z,60.00
2018-10-16T23:38:14.659Z,59.87
2018-10-16T23:40:42.838Z,59.89
2018-10-16T23:43:11.109Z,59.55
2018-10-16T23:45:39.396Z,60.00
2018-10-16T23:48:07.519Z,59.92
2018-10-16T23:50:35.691Z,60.25
2018-10-16T23:53:03.990Z,60.52
2018-10-16T23:55:32.144Z,60.42
2018-10-16T23:58:00.319Z,60.13
